createdAt,value
2023-10-29T00:01:02.346Z,19.10
2023-10-29T00:02:05.193Z,19.13
2023-10-29T00:03:08.877Z,19.14
2023-10-29T00:04:11.363Z,19.21
2023-10-29T00:05:14.980Z,19.23
2023-10-29T00:06:17.381Z,19.22
2023-10-29T00:07:20.883Z,19.21
2023-10-29T00:08:23.379Z,19.17
2023-10-29T00:09:26.967Z,19.08
2023-10-29T00:10:29.488Z,19.11
2023-10-29T00:11:32.919Z,18.98
2023-10-29T00:12:35.582Z,18.98
2023-10-29T00:13:40.516Z,19.08
2023-10-29T00:14:42.950Z,19.14
2023-10-29T00:15:46.513Z,19.10
2023-10-29T00:16:48.909Z,19.06
2023-10-29T00:17:52.694Z,18.98
2023-10-29T00:18:55.358Z,19.04
2023-10-29T00:19:57.987Z,19.07
2023-10-29T00:21:01.857Z,19.08
2023-10-29T00:22:05.588Z,19.03
2023-10-29T00:23:09.128Z,19.11
2023-10-29T00:24:11.725Z,18.98
2023-10-29T00:25:15.794Z,19.03
2023-10-29T00:26:18.606Z,19.10
2023-10-29T00:27:22.064Z,19.11
2023-10-29T00:28:24.748Z,19.09
2023-10-29T00:29:29.720Z,19.09
2023-10-29T00:30:32.246Z,19.08
2023-10-29T00:31:35.913Z,19.14
2023-10-29T00:32:38.629Z,19.09
2023-10-29T00:33:42.227Z,19.08
2023-10-29T00:34:44.800Z,19.00
2023-10-29T00:35:48.362Z,18.93
2023-10-29T00:36:50.893Z,18.92
2023-10-29T00:37:54.480Z,18.97
2023-10-29T00:38:57.437Z,18.98
2023-10-29T00:40:00.947Z,19.04
2023-10-29T00:41:03.701Z,18.95
2023-10-29T00:42:08.359Z,19.03
2023-10-29T00:43:14.429Z,18.98
2023-10-29T00:44:18.079Z,19.05
2023-10-29T00:45:21.891Z,19.08
2023-10-29T00:46:26.889Z,19.07
2023-10-29T00:47:29.540Z,19.07
2023-10-29T00:48:33.488Z,19.08
2023-10-29T00:49:37.582Z,19.13
2023-10-29T00:50:41.765Z,19.19
2023-10-29T00:51:45.330Z,19.21
2023-10-29T00:52:49.344Z,19.18
2023-10-29T00:53:52.822Z,19.20
2023-10-29T00:54:56.779Z,19.20
2023-10-29T00:56:00.706Z,19.19
2023-10-29T00:57:05.072Z,19.06
2023-10-29T00:58:07.722Z,19.15
2023-10-29T00:59:13.698Z,19.19
2023-10-29T01:00:19.403Z,19.19
2023-10-29T01:01:25.586Z,19.22
2023-10-29T01:02:28.399Z,19.24
2023-10-29T01:03:32.112Z,19.29
2023-10-29T01:04:37.072Z,19.21
2023-10-29T01:05:41.174Z,19.21
2023-10-29T01:06:45.720Z,19.20
2023-10-29T01:07:49.254Z,19.20
2023-10-29T01:08:51.927Z,19.21
2023-10-29T01:09:55.572Z,19.20
2023-10-29T01:10:58.056Z,19.09
2023-10-29T01:12:01.653Z,19.03
2023-10-29T01:13:04.309Z,18.97
2023-10-29T01:14:07.850Z,19.04
2023-10-29T01:15:11.336Z,19.03
2023-10-29T01:16:14.828Z,19.12
2023-10-29T01:17:19.618Z,19.10
2023-10-29T01:18:23.476Z,19.04
2023-10-29T01:19:26.048Z,19.06
2023-10-29T01:20:29.799Z,18.96
2023-10-29T01:21:32.711Z,19.09
2023-10-29T01:22:36.682Z,19.10
2023-10-29T01:23:39.978Z,19.13
2023-10-29T01:24:43.748Z,19.11
2023-10-29T01:25:46.150Z,19.16
2023-10-29T01:26:49.702Z,19.05
2023-10-29T01:27:52.897Z,19.06
2023-10-29T01:28:56.460Z,19.03
2023-10-29T01:29:58.969Z,19.04
2023-10-29T01:31:02.572Z,18.98
2023-10-29T01:32:05.647Z,18.77
2023-10-29T01:33:10.653Z,18.84
2023-10-29T01:34:13.196Z,18.79
2023-10-29T01:35:17.099Z,18.86
2023-10-29T01:36:19.864Z,18.85
2023-10-29T01:37:23.309Z,18.81
2023-10-29T01:38:26.627Z,18.69
2023-10-29T01:39:30.171Z,18.75
2023-10-29T01:40:32.675Z,18.61
2023-10-29T01:41:36.346Z,18.67
2023-10-29T01:42:38.962Z,18.77
2023-10-29T01:43:42.461Z,18.80
2023-10-29T01:44:45.054Z,18.73
2023-10-29T01:45:48.518Z,18.81
2023-10-29T01:46:50.991Z,18.75
2023-10-29T01:47:54.627Z,18.77
2023-10-29T01:48:58.670Z,18.69
2023-10-29T01:50:01.016Z,18.71
2023-10-29T01:51:07.717Z,18.85
2023-10-29T01:52:10.068Z,18.74
2023-10-29T01:53:13.656Z,18.63
2023-10-29T01:54:16.206Z,18.62
2023-10-29T01:55:19.999Z,18.67
2023-10-29T01:56:22.528Z,18.65
2023-10-29T01:57:25.913Z,18.66
2023-10-29T01:58:28.943Z,18.71
2023-10-29T01:59:32.280Z,18.76
2023-10-29T02:00:35.904Z,18.76
2023-10-29T02:01:38.366Z,18.80
2023-10-29T02:02:41.897Z,18.65
2023-10-29T02:03:44.686Z,18.65
2023-10-29T02:04:49.615Z,18.75
2023-10-29T02:05:52.306Z,18.82
2023-10-29T02:06:55.962Z,18.83
2023-10-29T02:07:58.383Z,18.95
2023-10-29T02:09:04.357Z,18.75
2023-10-29T02:10:07.641Z,18.91
2023-10-29T02:11:11.043Z,18.97
2023-10-29T02:12:13.383Z,19.05
2023-10-29T02:13:18.064Z,19.02
2023-10-29T02:14:20.718Z,18.82
2023-10-29T02:15:24.121Z,18.88
2023-10-29T02:16:26.520Z,18.51
2023-10-29T02:17:30.120Z,18.56
2023-10-29T02:18:32.593Z,18.70
2023-10-29T02:19:36.194Z,18.80
2023-10-29T02:20:40.282Z,18.75
2023-10-29T02:21:44.256Z,18.85
2023-10-29T02:22:48.118Z,18.84
2023-10-29T02:23:51.668Z,18.74
2023-10-29T02:24:54.095Z,18.77
2023-10-29T02:25:57.451Z,18.79
2023-10-29T02:26:59.854Z,18.82
2023-10-29T02:28:03.200Z,18.72
2023-10-29T02:29:06.039Z,18.67
2023-10-29T02:30:11.962Z,18.65
2023-10-29T02:31:18.289Z,18.63
2023-10-29T02:32:21.801Z,18.59
2023-10-29T02:33:24.360Z,18.56
2023-10-29T02:34:28.009Z,18.50
2023-10-29T02:35:30.556Z,18.45
2023-10-29T02:36:33.966Z,18.41
2023-10-29T02:37:37.302Z,18.46
2023-10-29T02:38:44.336Z,18.48
2023-10-29T02:39:47.188Z,18.46
2023-10-29T02:40:50.577Z,18.43
2023-10-29T02:41:53.329Z,18.47
2023-10-29T02:42:56.829Z,18.46
2023-10-29T02:43:59.899Z,18.41
2023-10-29T02:45:03.360Z,18.44
2023-10-29T02:46:05.982Z,18.52
2023-10-29T02:47:08.332Z,18.52
2023-10-29T02:48:12.164Z,18.54
2023-10-29T02:49:15.976Z,18.46
2023-10-29T02:50:19.409Z,18.53
2023-10-29T02:51:21.786Z,18.46
2023-10-29T02:52:26.155Z,18.44
2023-10-29T02:53:29.658Z,18.35
2023-10-29T02:54:34.985Z,18.23
2023-10-29T02:55:38.388Z,18.18
2023-10-29T02:56:41.967Z,18.11
2023-10-29T02:57:44.578Z,17.97
2023-10-29T02:58:48.133Z,17.78
2023-10-29T02:59:51.370Z,17.76
2023-10-29T03:00:55.226Z,17.83
2023-10-29T03:01:57.836Z,17.79
2023-10-29T03:03:01.662Z,17.76
2023-10-29T03:04:06.293Z,17.64
2023-10-29T03:05:13.201Z,17.51
2023-10-29T03:06:15.877Z,17.70
2023-10-29T03:07:19.872Z,17.70
2023-10-29T03:08:22.340Z,17.59
2023-10-29T03:09:25.801Z,17.47
2023-10-29T03:10:32.730Z,17.68
2023-10-29T03:11:36.227Z,17.58
2023-10-29T03:12:38.737Z,17.57
2023-10-29T03:13:42.482Z,17.75
2023-10-29T03:14:45.126Z,17.56
2023-10-29T03:15:49.109Z,17.68
2023-10-29T03:16:52.327Z,17.73
2023-10-29T03:17:57.777Z,17.75
2023-10-29T03:19:00.877Z,17.58
2023-10-29T03:20:04.708Z,17.68
2023-10-29T03:21:07.338Z,17.66
2023-10-29T03:22:10.744Z,17.61
2023-10-29T03:23:13.181Z,17.58
2023-10-29T03:24:17.081Z,17.65
2023-10-29T03:25:19.653Z,17.65
2023-10-29T03:26:23.620Z,17.77
2023-10-29T03:27:27.831Z,17.71
2023-10-29T03:28:30.993Z,17.81
2023-10-29T03:29:34.843Z,17.56
2023-10-29T03:30:37.831Z,17.40
2023-10-29T03:31:41.295Z,17.56
2023-10-29T03:32:43.706Z,17.55
2023-10-29T03:33:48.676Z,17.66
2023-10-29T03:34:51.149Z,17.74
2023-10-29T03:35:54.755Z,17.83
2023-10-29T03:36:57.390Z,17.93
2023-10-29T03:38:01.922Z,17.98
2023-10-29T03:39:04.506Z,17.96
2023-10-29T03:40:09.875Z,18.10
2023-10-29T03:41:20.667Z,18.27
2023-10-29T03:42:25.709Z,18.23
2023-10-29T03:43:28.166Z,18.38
2023-10-29T03:44:31.739Z,18.42
2023-10-29T03:45:34.210Z,18.39
2023-10-29T03:46:37.807Z,18.39
2023-10-29T03:47:42.074Z,18.27
2023-10-29T03:48:47.286Z,18.24
2023-10-29T03:49:49.610Z,18.23
2023-10-29T03:50:53.088Z,18.28
2023-10-29T03:51:55.618Z,18.21
2023-10-29T03:52:59.098Z,18.26
2023-10-29T03:54:01.788Z,18.28
2023-10-29T03:55:04.619Z,18.33
2023-10-29T03:56:09.427Z,18.40
2023-10-29T03:57:11.959Z,18.36
2023-10-29T03:58:16.811Z,18.38
2023-10-29T03:59:19.283Z,18.30
2023-10-29T04:00:23.063Z,18.12
2023-10-29T04:01:25.649Z,17.94
2023-10-29T04:02:28.239Z,18.00
2023-10-29T04:03:32.354Z,18.13
2023-10-29T04:04:35.055Z,17.99
2023-10-29T04:05:40.697Z,17.98
2023-10-29T04:06:43.722Z,18.15
2023-10-29T04:07:46.282Z,18.19
2023-10-29T04:08:49.897Z,18.21
2023-10-29T04:09:52.468Z,18.03
2023-10-29T04:10:56.351Z,17.99
2023-10-29T04:12:00.537Z,18.11
2023-10-29T04:13:04.210Z,18.18
2023-10-29T04:14:08.251Z,18.23
2023-10-29T04:15:13.250Z,18.22
2023-10-29T04:16:16.306Z,18.04
2023-10-29T04:17:20.031Z,18.07
2023-10-29T04:18:26.118Z,17.96
2023-10-29T04:19:29.729Z,17.88
2023-10-29T04:20:32.625Z,17.80
2023-10-29T04:21:36.263Z,17.88
2023-10-29T04:22:38.803Z,17.90
2023-10-29T04:23:42.361Z,17.85
2023-10-29T04:24:44.908Z,17.73
2023-10-29T04:25:47.344Z,17.70
2023-10-29T04:26:51.038Z,17.72
2023-10-29T04:27:53.632Z,17.70
2023-10-29T04:28:57.062Z,17.75
2023-10-29T04:30:01.081Z,17.49
2023-10-29T04:31:05.077Z,17.50
2023-10-29T04:32:08.222Z,17.62
2023-10-29T04:33:11.859Z,17.79
2023-10-29T04:34:14.800Z,17.72
2023-10-29T04:35:18.511Z,17.57
2023-10-29T04:36:22.671Z,17.63
2023-10-29T04:37:25.179Z,17.56
2023-10-29T04:38:29.835Z,17.73
2023-10-29T04:39:32.292Z,17.79
2023-10-29T04:40:36.311Z,17.75
2023-10-29T04:41:39.085Z,17.78
2023-10-29T04:42:42.552Z,17.74
2023-10-29T04:43:45.054Z,17.75
2023-10-29T04:44:49.254Z,17.75
2023-10-29T04:45:53.513Z,17.64
2023-10-29T04:46:56.902Z,17.69
2023-10-29T04:47:59.558Z,17.61
2023-10-29T04:49:03.594Z,17.64
2023-10-29T04:50:06.870Z,17.69
2023-10-29T04:51:11.016Z,17.57
2023-10-29T04:52:13.588Z,17.72
2023-10-29T04:53:17.077Z,17.59
2023-10-29T04:54:19.547Z,17.50
2023-10-29T04:55:23.192Z,17.46
2023-10-29T04:56:25.860Z,17.59
2023-10-29T04:57:28.307Z,17.65
2023-10-29T04:58:33.186Z,17.61
2023-10-29T04:59:38.309Z,17.54
2023-10-29T05:00:42.370Z,17.56
2023-10-29T05:01:46.730Z,17.45
2023-10-29T05:02:50.414Z,17.47
2023-10-29T05:03:53.051Z,17.47
2023-10-29T05:04:56.483Z,17.52
2023-10-29T05:05:58.952Z,17.33
2023-10-29T05:07:02.555Z,17.51
2023-10-29T05:08:05.431Z,17.69
2023-10-29T05:09:09.052Z,17.75
2023-10-29T05:10:11.807Z,17.74
2023-10-29T05:11:15.577Z,17.64
2023-10-29T05:12:17.960Z,17.57
2023-10-29T05:13:21.430Z,17.65
2023-10-29T05:14:24.610Z,17.79
2023-10-29T05:15:27.728Z,17.95
2023-10-29T05:16:31.749Z,18.13
2023-10-29T05:17:36.531Z,18.16
2023-10-29T05:18:40.284Z,18.11
2023-10-29T05:19:43.583Z,18.10
2023-10-29T05:20:47.045Z,18.27
2023-10-29T05:21:50.472Z,18.28
2023-10-29T05:22:54.210Z,18.34
2023-10-29T05:23:57.711Z,18.23
2023-10-29T05:25:00.190Z,18.14
2023-10-29T05:26:03.781Z,18.21
2023-10-29T05:27:06.326Z,18.11
2023-10-29T05:28:10.057Z,18.21
2023-10-29T05:29:12.598Z,18.20
2023-10-29T05:30:15.014Z,18.24
2023-10-29T05:31:18.507Z,18.13
2023-10-29T05:32:21.277Z,17.98
2023-10-29T05:33:26.230Z,17.94
2023-10-29T05:34:28.696Z,17.94
2023-10-29T05:35:32.142Z,17.98
2023-10-29T05:36:36.484Z,17.96
2023-10-29T05:37:40.405Z,17.91
2023-10-29T05:38:42.971Z,17.88
2023-10-29T05:39:46.472Z,17.98
2023-10-29T05:40:49.173Z,17.99
2023-10-29T05:41:52.639Z,18.02
2023-10-29T05:42:55.218Z,18.02
2023-10-29T05:43:58.909Z,18.00
2023-10-29T05:45:01.478Z,18.02
2023-10-29T05:46:05.373Z,18.06
2023-10-29T05:47:07.851Z,18.04
2023-10-29T05:48:11.263Z,18.05
2023-10-29T05:49:15.188Z,18.13
2023-10-29T05:50:18.603Z,18.16
2023-10-29T05:51:21.245Z,18.07
2023-10-29T05:52:24.641Z,18.12
2023-10-29T05:53:26.935Z,18.00
2023-10-29T05:54:30.877Z,17.99
2023-10-29T05:55:34.420Z,18.04
2023-10-29T05:56:38.061Z,18.07
2023-10-29T05:57:40.535Z,18.03
2023-10-29T05:58:44.855Z,18.06
2023-10-29T05:59:47.321Z,18.05
2023-10-29T06:00:50.546Z,18.02
2023-10-29T06:01:53.877Z,18.07
2023-10-29T06:02:56.544Z,18.07
2023-10-29T06:04:00.457Z,18.12
2023-10-29T06:05:05.185Z,18.10
2023-10-29T06:06:08.862Z,17.98
2023-10-29T06:07:11.403Z,18.05
2023-10-29T06:08:14.905Z,18.04
2023-10-29T06:09:24.244Z,18.01
2023-10-29T06:10:28.064Z,18.07
2023-10-29T06:11:30.674Z,18.07
2023-10-29T06:12:34.173Z,18.01
2023-10-29T06:13:36.587Z,17.98
2023-10-29T06:14:40.105Z,17.99
2023-10-29T06:15:42.672Z,17.97
2023-10-29T06:16:45.104Z,17.97
2023-10-29T06:17:49.526Z,17.96
2023-10-29T06:18:52.244Z,17.96
2023-10-29T06:19:56.576Z,17.89
2023-10-29T06:21:00.658Z,17.88
2023-10-29T06:22:06.957Z,17.98
2023-10-29T06:23:09.559Z,18.04
2023-10-29T06:24:13.098Z,18.04
2023-10-29T06:25:15.989Z,18.07
2023-10-29T06:26:19.511Z,18.12
2023-10-29T06:27:22.089Z,18.15
2023-10-29T06:28:25.578Z,18.10
2023-10-29T06:29:28.001Z,18.16
2023-10-29T06:30:31.660Z,18.10
2023-10-29T06:31:34.922Z,18.13
2023-10-29T06:32:38.474Z,18.11
2023-10-29T06:33:42.815Z,18.14
2023-10-29T06:34:46.584Z,18.07
2023-10-29T06:35:49.246Z,18.08
2023-10-29T06:36:54.523Z,18.08
2023-10-29T06:37:57.074Z,18.06
2023-10-29T06:39:00.599Z,18.06
2023-10-29T06:40:04.483Z,18.05
2023-10-29T06:41:07.958Z,18.12
2023-10-29T06:42:10.454Z,18.11
2023-10-29T06:43:14.034Z,18.08
2023-10-29T06:44:16.361Z,18.12
2023-10-29T06:45:20.135Z,18.14
2023-10-29T06:46:22.595Z,18.10
2023-10-29T06:47:26.250Z,18.06
2023-10-29T06:48:29.163Z,18.15
2023-10-29T06:49:32.891Z,18.18
2023-10-29T06:50:35.378Z,18.21
2023-10-29T06:51:38.956Z,18.23
2023-10-29T06:52:42.746Z,18.27
2023-10-29T06:53:47.027Z,18.26
2023-10-29T06:54:49.884Z,18.31
2023-10-29T06:55:53.602Z,18.38
2023-10-29T06:56:56.034Z,18.46
2023-10-29T06:57:59.808Z,18.45
2023-10-29T06:59:02.782Z,18.47
2023-10-29T07:00:06.349Z,18.50
2023-10-29T07:01:11.603Z,18.56
2023-10-29T07:02:14.247Z,18.55
2023-10-29T07:03:17.978Z,18.58
2023-10-29T07:04:20.802Z,18.62
2023-10-29T07:05:24.497Z,18.68
2023-10-29T07:06:26.881Z,18.55
2023-10-29T07:07:31.285Z,18.71
2023-10-29T07:08:35.346Z,18.78
2023-10-29T07:09:39.272Z,18.83
2023-10-29T07:10:41.664Z,18.75
2023-10-29T07:11:45.380Z,18.82
2023-10-29T07:12:47.735Z,18.83
2023-10-29T07:13:51.201Z,18.81
2023-10-29T07:14:53.694Z,18.86
2023-10-29T07:15:57.821Z,18.80
2023-10-29T07:17:00.317Z,18.78
2023-10-29T07:18:04.565Z,18.70
2023-10-29T07:19:07.305Z,18.76
2023-10-29T07:20:12.528Z,18.75
2023-10-29T07:21:16.129Z,18.74
2023-10-29T07:22:19.776Z,18.76
2023-10-29T07:23:23.485Z,18.72
2023-10-29T07:24:28.426Z,18.65
2023-10-29T07:25:31.194Z,18.71
2023-10-29T07:26:34.935Z,18.69
2023-10-29T07:27:37.330Z,18.71
2023-10-29T07:28:41.727Z,18.71
2023-10-29T07:29:44.117Z,18.72
2023-10-29T07:30:47.793Z,18.74
2023-10-29T07:31:50.346Z,18.73
2023-10-29T07:32:54.142Z,18.75
2023-10-29T07:33:56.591Z,18.74
2023-10-29T07:35:00.685Z,18.78
2023-10-29T07:36:04.298Z,18.78
2023-10-29T07:37:09.938Z,18.75
2023-10-29T07:38:13.781Z,18.79
2023-10-29T07:39:16.368Z,18.79
2023-10-29T07:40:21.701Z,18.73
2023-10-29T07:41:24.123Z,18.75
2023-10-29T07:42:27.958Z,18.77
2023-10-29T07:43:30.379Z,18.76
2023-10-29T07:44:34.010Z,18.71
2023-10-29T07:45:36.448Z,18.74
2023-10-29T07:46:40.053Z,18.73
2023-10-29T07:47:42.553Z,18.84
2023-10-29T07:48:46.109Z,18.87
2023-10-29T07:49:48.540Z,18.93
2023-10-29T07:50:52.528Z,19.00
2023-10-29T07:51:56.103Z,19.06
2023-10-29T07:52:59.700Z,19.04
2023-10-29T07:54:02.154Z,19.03
2023-10-29T07:55:06.111Z,19.04
2023-10-29T07:56:11.996Z,19.16
2023-10-29T07:57:15.628Z,19.35
2023-10-29T07:58:18.089Z,19.50
2023-10-29T07:59:21.573Z,19.63
2023-10-29T08:00:24.144Z,19.70
2023-10-29T08:01:28.336Z,19.71
2023-10-29T08:02:32.058Z,19.77
2023-10-29T08:03:36.066Z,19.68
2023-10-29T08:04:39.022Z,19.73
2023-10-29T08:05:41.545Z,19.69
2023-10-29T08:06:45.399Z,19.69
2023-10-29T08:07:47.833Z,19.73
2023-10-29T08:08:51.737Z,19.88
2023-10-29T08:09:54.317Z,19.95
2023-10-29T08:10:57.798Z,20.15
2023-10-29T08:12:01.698Z,20.36
2023-10-29T08:13:07.178Z,20.45
2023-10-29T08:14:09.778Z,20.60
2023-10-29T08:15:13.784Z,20.74
2023-10-29T08:16:16.564Z,20.91
2023-10-29T08:17:19.153Z,21.01
2023-10-29T08:18:22.838Z,21.16
2023-10-29T08:19:27.844Z,21.35
2023-10-29T08:20:31.384Z,21.41
2023-10-29T08:21:33.859Z,21.49
2023-10-29T08:22:36.981Z,21.64
2023-10-29T08:23:41.447Z,21.72
2023-10-29T08:24:45.204Z,21.85
2023-10-29T08:25:49.107Z,21.78
2023-10-29T08:26:52.758Z,21.53
2023-10-29T08:27:57.640Z,21.26
2023-10-29T08:29:00.051Z,21.18
2023-10-29T08:30:06.167Z,21.03
2023-10-29T08:31:10.245Z,20.91
2023-10-29T08:32:14.115Z,20.80
2023-10-29T08:33:16.800Z,20.60
2023-10-29T08:34:20.441Z,20.46
2023-10-29T08:35:23.170Z,20.36
2023-10-29T08:36:26.737Z,20.33
2023-10-29T08:37:29.241Z,20.31
2023-10-29T08:38:32.792Z,20.21
2023-10-29T08:39:37.427Z,20.14
2023-10-29T08:40:41.205Z,20.10
2023-10-29T08:41:43.778Z,20.09
2023-10-29T08:42:48.962Z,20.25
2023-10-29T08:43:53.570Z,20.42
2023-10-29T08:44:59.046Z,20.61
2023-10-29T08:46:02.605Z,20.80
2023-10-29T08:47:06.878Z,20.89
2023-10-29T08:48:09.708Z,21.04
2023-10-29T08:49:13.796Z,21.10
2023-10-29T08:50:16.333Z,21.19
2023-10-29T08:51:18.863Z,21.27
2023-10-29T08:52:22.469Z,21.32
2023-10-29T08:53:25.893Z,21.42
2023-10-29T08:54:29.453Z,21.39
2023-10-29T08:55:32.157Z,21.43
2023-10-29T08:56:36.664Z,21.41
2023-10-29T08:57:39.068Z,21.32
2023-10-29T08:58:42.547Z,21.42
2023-10-29T08:59:46.629Z,21.43
2023-10-29T09:00:50.311Z,21.45
2023-10-29T09:01:54.519Z,21.52
2023-10-29T09:02:58.008Z,21.56
2023-10-29T09:04:01.433Z,21.59
2023-10-29T09:05:05.919Z,21.50
2023-10-29T09:06:09.005Z,21.50
2023-10-29T09:07:12.615Z,21.55
2023-10-29T09:08:15.108Z,21.65
2023-10-29T09:09:18.534Z,21.72
2023-10-29T09:10:21.005Z,21.74
2023-10-29T09:11:24.523Z,21.76
2023-10-29T09:12:26.898Z,21.82
2023-10-29T09:13:30.236Z,21.90
2023-10-29T09:14:32.745Z,21.71
2023-10-29T09:15:37.765Z,21.88
2023-10-29T09:16:40.297Z,21.86
2023-10-29T09:17:44.038Z,21.91
2023-10-29T09:18:48.826Z,21.83
2023-10-29T09:19:52.330Z,21.78
2023-10-29T09:20:55.081Z,21.73
2023-10-29T09:21:59.822Z,21.77
2023-10-29T09:23:02.835Z,21.86
2023-10-29T09:24:08.373Z,21.98
2023-10-29T09:25:10.797Z,21.90
2023-10-29T09:26:16.091Z,21.98
2023-10-29T09:27:20.351Z,22.13
2023-10-29T09:28:23.913Z,22.08
2023-10-29T09:29:26.420Z,21.84
2023-10-29T09:30:29.953Z,22.04
2023-10-29T09:31:33.995Z,22.07
2023-10-29T09:32:37.651Z,22.17
2023-10-29T09:33:40.934Z,22.32
2023-10-29T09:34:44.516Z,22.35
2023-10-29T09:35:47.024Z,22.46
2023-10-29T09:36:50.536Z,22.47
2023-10-29T09:37:53.066Z,22.38
2023-10-29T09:38:56.578Z,22.27
2023-10-29T09:39:59.014Z,22.35
2023-10-29T09:41:03.739Z,22.20
2023-10-29T09:42:10.312Z,22.12
2023-10-29T09:43:16.051Z,22.20
2023-10-29T09:44:21.879Z,22.08
2023-10-29T09:45:26.708Z,22.20
2023-10-29T09:46:33.893Z,22.42
2023-10-29T09:47:37.953Z,22.37
2023-10-29T09:48:43.861Z,22.43
2023-10-29T09:49:47.645Z,22.27
2023-10-29T09:50:50.486Z,21.94
2023-10-29T09:51:54.374Z,21.84
2023-10-29T09:52:58.896Z,21.73
2023-10-29T09:54:02.923Z,21.74
2023-10-29T09:55:08.778Z,21.77
2023-10-29T09:56:13.970Z,21.58
2023-10-29T09:57:16.976Z,21.42
2023-10-29T09:58:23.723Z,21.13
2023-10-29T09:59:26.325Z,21.14
2023-10-29T10:00:29.946Z,21.32
2023-10-29T10:01:44.606Z,21.44
2023-10-29T10:02:58.130Z,21.43
2023-10-29T10:04:01.192Z,21.60
2023-10-29T10:05:11.280Z,21.67
2023-10-29T10:06:16.808Z,21.74
2023-10-29T10:07:24.194Z,21.66
2023-10-29T10:08:27.193Z,21.73
2023-10-29T10:09:54.408Z,21.84
2023-10-29T10:10:57.627Z,21.67
2023-10-29T10:12:06.607Z,21.55
2023-10-29T10:13:09.345Z,21.74
2023-10-29T10:14:27.707Z,21.78
2023-10-29T10:15:30.306Z,21.98
2023-10-29T10:16:35.538Z,22.06
2023-10-29T10:17:38.060Z,22.06
2023-10-29T10:18:52.908Z,22.00
2023-10-29T10:20:07.525Z,22.02
2023-10-29T10:21:11.062Z,21.69
2023-10-29T10:22:13.678Z,21.56
2023-10-29T10:23:17.199Z,21.41
2023-10-29T10:24:20.763Z,21.22
2023-10-29T10:25:27.689Z,20.96
2023-10-29T10:26:31.776Z,20.81
2023-10-29T10:27:49.926Z,20.86
2023-10-29T10:28:55.125Z,20.96
2023-10-29T10:29:59.324Z,20.89
2023-10-29T10:31:15.319Z,21.02
2023-10-29T10:32:26.283Z,21.18
2023-10-29T10:33:29.708Z,21.43
2023-10-29T10:34:35.489Z,21.67
2023-10-29T10:35:42.264Z,21.88
2023-10-29T10:36:46.822Z,21.94
2023-10-29T10:37:56.426Z,22.18
2023-10-29T10:39:00.837Z,22.27
2023-10-29T10:40:22.130Z,22.32
2023-10-29T10:41:25.771Z,22.20
2023-10-29T10:42:28.443Z,22.30
2023-10-29T10:43:33.121Z,22.34
2023-10-29T10:44:37.814Z,22.14
2023-10-29T10:45:43.102Z,21.98
2023-10-29T10:46:50.882Z,22.17
2023-10-29T10:47:58.144Z,22.26
2023-10-29T10:49:02.824Z,22.00
2023-10-29T10:50:09.255Z,21.73
2023-10-29T10:51:12.598Z,21.55
2023-10-29T10:52:18.180Z,21.49
2023-10-29T10:53:21.120Z,21.52
2023-10-29T10:54:25.526Z,21.58
2023-10-29T10:55:46.914Z,21.62
2023-10-29T10:56:55.111Z,21.73
2023-10-29T10:57:58.233Z,21.49
2023-10-29T10:59:02.073Z,21.20
2023-10-29T11:00:07.134Z,21.19
2023-10-29T11:01:12.067Z,21.10
2023-10-29T11:02:15.589Z,21.01
2023-10-29T11:03:32.537Z,21.18
2023-10-29T11:04:37.980Z,21.43
2023-10-29T11:05:43.080Z,21.29
2023-10-29T11:06:45.844Z,21.12
2023-10-29T11:07:49.914Z,21.03
2023-10-29T11:08:53.578Z,20.94
2023-10-29T11:09:57.771Z,21.12
2023-10-29T11:11:02.187Z,21.20
2023-10-29T11:12:08.434Z,21.33
2023-10-29T11:13:21.587Z,21.59
2023-10-29T11:14:28.218Z,21.75
2023-10-29T11:15:31.084Z,21.85
2023-10-29T11:16:33.916Z,21.91
2023-10-29T11:18:10.401Z,22.27
2023-10-29T11:19:45.795Z,22.59
2023-10-29T11:21:00.884Z,22.96
2023-10-29T11:22:17.278Z,23.09
2023-10-29T11:23:25.600Z,22.87
2023-10-29T11:24:28.065Z,22.61
2023-10-29T11:25:31.966Z,22.24
2023-10-29T11:26:34.831Z,22.03
2023-10-29T11:27:38.731Z,22.03
2023-10-29T11:28:46.772Z,21.87
2023-10-29T11:29:49.645Z,21.61
2023-10-29T11:31:17.851Z,21.54
2023-10-29T11:32:27.403Z,21.46
2023-10-29T11:33:30.964Z,21.40
2023-10-29T11:34:34.986Z,21.39
2023-10-29T11:35:41.054Z,21.34
2023-10-29T11:36:44.374Z,21.57
2023-10-29T11:37:50.160Z,21.67
2023-10-29T11:38:52.811Z,21.75
2023-10-29T11:39:56.505Z,21.82
2023-10-29T11:41:00.539Z,21.87
2023-10-29T11:42:27.056Z,21.79
2023-10-29T11:43:29.927Z,21.76
2023-10-29T11:44:34.517Z,21.72
2023-10-29T11:45:37.608Z,21.62
2023-10-29T11:47:08.158Z,21.45
2023-10-29T11:48:11.500Z,21.36
2023-10-29T11:49:15.372Z,21.29
2023-10-29T11:50:17.775Z,21.41
2023-10-29T11:51:27.209Z,21.81
2023-10-29T11:52:41.486Z,21.99
2023-10-29T11:53:45.115Z,21.95
2023-10-29T11:54:47.834Z,21.84
2023-10-29T11:55:52.516Z,21.65
2023-10-29T11:56:59.172Z,21.43
2023-10-29T11:58:02.411Z,21.39
2023-10-29T11:59:07.453Z,21.13
2023-10-29T12:00:10.919Z,21.11
2023-10-29T12:01:21.359Z,21.07
2023-10-29T12:02:25.192Z,21.11
2023-10-29T12:03:28.188Z,21.12
2023-10-29T12:04:32.158Z,21.07
2023-10-29T12:05:35.346Z,21.08
2023-10-29T12:06:45.074Z,21.04
2023-10-29T12:07:47.997Z,21.00
2023-10-29T12:08:50.513Z,20.91
2023-10-29T12:10:02.565Z,20.66
2023-10-29T12:11:05.638Z,20.70
2023-10-29T12:12:12.704Z,20.85
2023-10-29T12:13:15.646Z,21.14
2023-10-29T12:14:40.496Z,21.43
2023-10-29T12:15:48.089Z,21.25
2023-10-29T12:16:52.019Z,21.14
2023-10-29T12:17:54.803Z,21.17
2023-10-29T12:18:58.352Z,21.18
2023-10-29T12:20:00.895Z,21.11
2023-10-29T12:21:08.925Z,21.08
2023-10-29T12:22:18.598Z,20.93
2023-10-29T12:23:22.348Z,20.93
2023-10-29T12:24:25.027Z,20.89
2023-10-29T12:25:29.533Z,21.04
2023-10-29T12:26:32.088Z,21.27
2023-10-29T12:27:40.669Z,21.39
2023-10-29T12:28:43.463Z,21.44
2023-10-29T12:29:46.236Z,21.52
2023-10-29T12:30:51.885Z,21.43
2023-10-29T12:31:54.601Z,21.24
2023-10-29T12:33:23.033Z,21.23
2023-10-29T12:34:26.004Z,21.32
2023-10-29T12:35:37.242Z,21.41
2023-10-29T12:36:40.084Z,21.31
2023-10-29T12:37:54.475Z,21.36
2023-10-29T12:38:57.086Z,21.53
2023-10-29T12:40:02.300Z,21.74
2023-10-29T12:41:07.134Z,21.77
2023-10-29T12:42:11.033Z,21.59
2023-10-29T12:43:14.991Z,21.54
2023-10-29T12:44:18.924Z,21.56
2023-10-29T12:45:25.990Z,21.52
2023-10-29T12:46:29.935Z,21.46
2023-10-29T12:47:32.349Z,21.38
2023-10-29T12:48:37.852Z,21.51
2023-10-29T12:49:40.574Z,21.57
2023-10-29T12:50:48.520Z,21.61
2023-10-29T12:51:54.324Z,21.71
2023-10-29T12:52:59.356Z,21.83
2023-10-29T12:54:12.681Z,21.82
2023-10-29T12:55:17.371Z,21.69
2023-10-29T12:56:19.891Z,21.37
2023-10-29T12:57:23.665Z,21.07
2023-10-29T12:58:27.591Z,21.13
2023-10-29T12:59:33.012Z,21.05
2023-10-29T13:00:35.575Z,21.17
2023-10-29T13:01:39.771Z,21.44
2023-10-29T13:02:42.340Z,21.51
2023-10-29T13:03:46.196Z,21.67
2023-10-29T13:04:49.317Z,21.65
2023-10-29T13:05:55.813Z,21.54
2023-10-29T13:07:06.886Z,21.70
2023-10-29T13:08:12.685Z,21.79
2023-10-29T13:09:19.561Z,21.80
2023-10-29T13:10:22.857Z,21.61
2023-10-29T13:11:26.725Z,21.41
2023-10-29T13:12:29.403Z,21.41
2023-10-29T13:13:35.982Z,21.39
2023-10-29T13:14:39.212Z,21.30
2023-10-29T13:15:43.340Z,21.20
2023-10-29T13:16:46.010Z,21.06
2023-10-29T13:17:49.759Z,20.95
2023-10-29T13:18:52.391Z,20.86
2023-10-29T13:19:56.288Z,20.90
2023-10-29T13:21:01.936Z,20.89
2023-10-29T13:22:05.102Z,20.76
2023-10-29T13:23:09.052Z,20.76
2023-10-29T13:24:13.115Z,20.85
2023-10-29T13:25:17.871Z,20.76
2023-10-29T13:26:20.350Z,20.70
2023-10-29T13:27:23.870Z,20.69
2023-10-29T13:28:26.538Z,20.65
2023-10-29T13:29:30.009Z,20.69
2023-10-29T13:30:34.143Z,20.67
2023-10-29T13:31:37.612Z,20.61
2023-10-29T13:32:40.173Z,20.69
2023-10-29T13:33:44.113Z,20.67
2023-10-29T13:34:47.795Z,20.73
2023-10-29T13:35:51.780Z,20.85
2023-10-29T13:36:55.876Z,20.74
2023-10-29T13:37:59.349Z,20.71
2023-10-29T13:39:02.585Z,20.66
2023-10-29T13:40:09.024Z,20.64
2023-10-29T13:41:13.409Z,20.60
2023-10-29T13:42:17.752Z,20.56
2023-10-29T13:43:20.292Z,20.55
2023-10-29T13:44:24.481Z,20.64
2023-10-29T13:45:28.460Z,20.86
2023-10-29T13:46:32.366Z,20.93
2023-10-29T13:47:36.282Z,20.94
2023-10-29T13:48:38.973Z,20.94